Time;durP1;ratioP1;P1;durP2;ratioP2;P2;SDS_P1;SDS_P2;PMS_P1;PMS_P2;Temp;Humidity;BMP_temperature;BMP_pressure;BME280_temperature;BME280_humidity;BME280_pressure;Samples;Min_cycle;Max_cycle;Signal;HPM_P1;HPM_P2
2023/08/06 00:02:11;;;;;;;;;;;15.50;70.60;;;;;;4178964;28;20344;-85
2023/08/06 00:04:32;;;;;;;;;;;15.50;70.70;;;;;;4176262;28;20374;-85
2023/08/06 00:06:32;;;;;;;;;;;15.50;71.20;;;;;;4179134;28;19913;-85
2023/08/06 00:09:02;;;;;;;;;;;15.50;71.30;;;;;;4178472;28;20376;-85
2023/08/06 00:11:22;;;;;;;;;;;15.50;71.40;;;;;;4178007;28;20328;-86
2023/08/06 00:13:43;;;;;;;;;;;15.60;71.40;;;;;;4171489;28;19913;-86
2023/08/06 00:16:13;;;;;;;;;;;15.60;71.50;;;;;;4176300;28;20644;-85
2023/08/06 00:18:34;;;;;;;;;;;15.60;71.40;;;;;;4178209;28;20100;-86
2023/08/06 00:21:02;;;;;;;;;;;15.70;71.60;;;;;;4174453;28;20363;-85
2023/08/06 00:23:32;;;;;;;;;;;15.70;71.60;;;;;;4177085;28;19912;-86
2023/08/06 00:25:53;;;;;;;;;;;15.70;71.50;;;;;;4190233;28;19924;-85
2023/08/06 00:28:16;;;;;;;;;;;15.70;72.10;;;;;;4176983;28;19999;-87
2023/08/06 00:30:37;;;;;;;;;;;15.60;72.00;;;;;;4171882;28;19948;-90
2023/08/06 00:33:06;;;;;;;;;;;15.70;71.90;;;;;;4178744;28;19917;-86
2023/08/06 00:35:33;;;;;;;;;;;15.80;71.90;;;;;;4171798;28;19975;-86
2023/08/06 00:38:00;;;;;;;;;;;15.80;72.10;;;;;;4176223;28;19909;-87
2023/08/06 00:40:30;;;;;;;;;;;15.70;72.30;;;;;;4173966;28;19995;-85
2023/08/06 00:42:50;;;;;;;;;;;15.80;72.50;;;;;;4191488;28;20284;-86
2023/08/06 00:45:11;;;;;;;;;;;15.90;72.50;;;;;;4175092;28;19936;-86
2023/08/06 00:47:31;;;;;;;;;;;15.90;72.70;;;;;;4175677;28;20039;-85
2023/08/06 00:49:54;;;;;;;;;;;15.90;72.70;;;;;;4176135;28;19920;-86
2023/08/06 00:52:21;;;;;;;;;;;15.90;72.70;;;;;;4175648;28;20027;-87
2023/08/06 00:54:50;;;;;;;;;;;15.90;73.10;;;;;;4174057;28;20338;-86
2023/08/06 00:57:11;;;;;;;;;;;16.00;73.00;;;;;;4169303;28;19917;-86
2023/08/06 00:59:36;;;;;;;;;;;15.90;72.80;;;;;;4194580;28;19913;-87
2023/08/06 01:01:59;;;;;;;;;;;15.90;72.70;;;;;;4184516;28;20258;-86
2023/08/06 01:04:03;;;;;;;;;;;15.90;72.70;;;;;;4156024;28;19920;-88
2023/08/06 01:06:05;;;;;;;;;;;16.00;72.90;;;;;;4188048;28;20417;-86
2023/08/06 01:08:52;;;;;;;;;;;16.00;73.30;;;;;;4178668;28;19916;-86
2023/08/06 01:11:28;;;;;;;;;;;16.00;73.10;;;;;;4114802;28;19914;-86
2023/08/06 01:13:58;;;;;;;;;;;16.00;73.80;;;;;;4132221;28;20537;-86
2023/08/06 01:16:21;;;;;;;;;;;16.00;73.50;;;;;;4131590;28;20433;-86
2023/08/06 01:18:43;;;;;;;;;;;16.00;73.30;;;;;;4121706;28;20025;-86
2023/08/06 01:21:03;;;;;;;;;;;16.00;73.20;;;;;;4122500;28;19957;-87
2023/08/06 01:23:33;;;;;;;;;;;16.00;73.40;;;;;;4141357;28;19913;-86
2023/08/06 01:26:12;;;;;;;;;;;16.10;73.40;;;;;;4150035;28;19995;-85
2023/08/06 01:28:27;;;;;;;;;;;16.10;73.30;;;;;;4132979;28;19974;-86
2023/08/06 01:30:36;;;;;;;;;;;16.10;74.50;;;;;;4129644;28;19979;-86
2023/08/06 01:32:38;;;;;;;;;;;16.00;75.70;;;;;;4144375;28;19941;-86
2023/08/06 01:34:41;;;;;;;;;;;16.00;76.00;;;;;;4128306;28;20004;-85
2023/08/06 01:36:42;;;;;;;;;;;16.00;76.10;;;;;;4130840;28;20367;-85
2023/08/06 01:38:43;;;;;;;;;;;16.00;76.30;;;;;;4124551;28;19941;-86
2023/08/06 01:40:44;;;;;;;;;;;16.10;76.50;;;;;;4111883;28;19913;-86
2023/08/06 01:43:05;;;;;;;;;;;16.00;76.60;;;;;;4119038;28;19957;-86
2023/08/06 01:45:26;;;;;;;;;;;16.10;76.60;;;;;;4127121;28;19918;-86
2023/08/06 01:47:46;;;;;;;;;;;16.10;76.80;;;;;;4135794;28;20324;-86
2023/08/06 01:50:13;;;;;;;;;;;16.10;76.80;;;;;;4175117;28;19916;-86
2023/08/06 01:52:39;;;;;;;;;;;16.00;76.20;;;;;;4171152;28;19967;-86
2023/08/06 01:55:06;;;;;;;;;;;16.10;75.80;;;;;;4187923;28;19991;-85
2023/08/06 01:57:28;;;;;;;;;;;16.10;75.60;;;;;;4174569;28;20289;-86
2023/08/06 01:59:49;;;;;;;;;;;16.20;75.60;;;;;;4186449;28;19982;-86
2023/08/06 02:02:09;;;;;;;;;;;16.20;75.50;;;;;;4173748;28;20378;-86
2023/08/06 02:04:30;;;;;;;;;;;16.20;75.40;;;;;;4189219;28;20513;-86
2023/08/06 02:06:54;;;;;;;;;;;16.20;75.40;;;;;;4186916;28;20576;-86
2023/08/06 02:08:54;;;;;;;;;;;16.20;75.30;;;;;;4188935;28;19920;-86
2023/08/06 02:10:55;;;;;;;;;;;16.20;75.20;;;;;;4175129;28;19919;-86
2023/08/06 02:12:56;;;;;;;;;;;16.20;75.30;;;;;;4174945;28;20136;-88
2023/08/06 02:15:16;;;;;;;;;;;16.30;75.30;;;;;;4173594;28;20049;-85
2023/08/06 02:17:37;;;;;;;;;;;16.30;75.20;;;;;;4174603;28;21201;-86
2023/08/06 02:19:58;;;;;;;;;;;16.30;75.50;;;;;;4177330;28;19945;-86
2023/08/06 02:22:19;;;;;;;;;;;16.30;75.30;;;;;;4175265;28;20380;-86
2023/08/06 02:24:39;;;;;;;;;;;16.30;75.10;;;;;;4169160;28;19928;-86
2023/08/06 02:27:00;;;;;;;;;;;16.30;75.20;;;;;;4174740;28;19924;-86
2023/08/06 02:29:21;;;;;;;;;;;16.30;74.90;;;;;;4174397;28;19916;-85
2023/08/06 02:31:41;;;;;;;;;;;16.30;75.30;;;;;;4188358;28;19917;-86
2023/08/06 02:34:02;;;;;;;;;;;16.30;75.00;;;;;;4173898;28;20007;-86
2023/08/06 02:36:22;;;;;;;;;;;16.30;74.90;;;;;;4175549;28;19916;-86
2023/08/06 02:38:23;;;;;;;;;;;16.30;74.90;;;;;;4174835;28;19913;-86
2023/08/06 02:40:24;;;;;;;;;;;16.30;74.80;;;;;;4158734;28;19921;-85
2023/08/06 02:42:25;;;;;;;;;;;16.30;74.80;;;;;;4174997;28;20392;-86
2023/08/06 02:44:29;;;;;;;;;;;16.30;74.70;;;;;;4175965;28;19928;-85
2023/08/06 02:46:50;;;;;;;;;;;16.30;74.60;;;;;;4172481;28;20281;-86
2023/08/06 02:49:11;;;;;;;;;;;16.30;74.50;;;;;;4184902;28;19939;-86
2023/08/06 02:51:34;;;;;;;;;;;16.20;75.00;;;;;;4174385;28;20376;-86
2023/08/06 02:53:55;;;;;;;;;;;16.30;75.30;;;;;;4174706;28;20450;-86
2023/08/06 02:56:15;;;;;;;;;;;16.20;75.40;;;;;;4175030;28;20328;-85
2023/08/06 02:58:37;;;;;;;;;;;16.20;75.50;;;;;;4173767;28;20413;-86
2023/08/06 03:01:02;;;;;;;;;;;16.20;75.70;;;;;;4175221;28;20285;-85
2023/08/06 03:03:03;;;;;;;;;;;16.10;75.80;;;;;;4173608;28;20425;-85
2023/08/06 03:05:24;;;;;;;;;;;16.10;76.10;;;;;;4177344;28;20346;-85
2023/08/06 03:07:44;;;;;;;;;;;16.10;76.20;;;;;;4175671;28;20326;-85
2023/08/06 03:10:05;;;;;;;;;;;16.00;76.50;;;;;;4190196;28;19916;-85
2023/08/06 03:12:25;;;;;;;;;;;16.00;76.50;;;;;;4180049;28;20301;-85
2023/08/06 03:14:46;;;;;;;;;;;16.10;76.70;;;;;;4175911;28;20436;-85
2023/08/06 03:17:06;;;;;;;;;;;16.00;76.20;;;;;;4174748;28;20810;-86
2023/08/06 03:19:24;;;;;;;;;;;16.00;76.20;;;;;;4190513;28;19913;-86
2023/08/06 03:21:24;;;;;;;;;;;16.00;76.00;;;;;;4176234;28;19935;-85
2023/08/06 03:23:25;;;;;;;;;;;16.00;75.90;;;;;;4176710;28;19913;-86
2023/08/06 03:25:28;;;;;;;;;;;16.00;75.80;;;;;;4178347;28;20349;-85
2023/08/06 03:27:29;;;;;;;;;;;16.10;75.80;;;;;;4179115;28;19913;-85
2023/08/06 03:29:34;;;;;;;;;;;16.10;75.80;;;;;;4175648;28;19924;-86
2023/08/06 03:31:35;;;;;;;;;;;16.00;75.70;;;;;;4191281;28;20473;-86
2023/08/06 03:33:55;;;;;;;;;;;16.00;75.70;;;;;;4174592;28;19931;-86
2023/08/06 03:36:16;;;;;;;;;;;16.10;76.60;;;;;;4189117;28;19916;-85
2023/08/06 03:38:16;;;;;;;;;;;16.00;76.20;;;;;;4179438;28;19929;-85
2023/08/06 03:40:37;;;;;;;;;;;16.00;76.60;;;;;;4213925;22;20331;-85
2023/08/06 03:42:57;;;;;;;;;;;16.00;76.60;;;;;;4193894;28;19948;-86
2023/08/06 03:45:18;;;;;;;;;;;16.00;76.40;;;;;;4192464;28;20298;-85
2023/08/06 03:47:38;;;;;;;;;;;16.10;76.30;;;;;;4204604;28;20331;-86
2023/08/06 03:49:59;;;;;;;;;;;16.00;76.10;;;;;;4190359;28;20447;-85
2023/08/06 03:52:19;;;;;;;;;;;16.00;76.00;;;;;;4180407;28;19984;-85
2023/08/06 03:54:40;;;;;;;;;;;16.00;76.40;;;;;;4193048;28;19917;-86
2023/08/06 03:57:01;;;;;;;;;;;16.00;76.50;;;;;;4191498;28;21111;-85
2023/08/06 03:59:21;;;;;;;;;;;16.00;76.90;;;;;;4194068;28;20337;-85
2023/08/06 04:01:22;;;;;;;;;;;16.00;77.20;;;;;;4176163;28;19935;-84
2023/08/06 04:03:23;;;;;;;;;;;15.90;77.30;;;;;;4174716;28;19909;-85
2023/08/06 04:05:23;;;;;;;;;;;15.90;77.80;;;;;;4162150;28;20416;-84
2023/08/06 04:07:34;;;;;;;;;;;15.90;77.80;;;;;;4176652;28;20109;-85
2023/08/06 04:09:56;;;;;;;;;;;16.00;78.30;;;;;;4194754;28;20327;-85
2023/08/06 04:12:26;;;;;;;;;;;15.80;78.10;;;;;;4178870;28;19928;-85
2023/08/06 04:14:47;;;;;;;;;;;15.80;78.30;;;;;;4191257;28;20304;-86
2023/08/06 04:17:07;;;;;;;;;;;15.80;78.80;;;;;;4194017;28;20090;-85
2023/08/06 04:19:28;;;;;;;;;;;15.70;79.70;;;;;;4188698;28;20285;-85
2023/08/06 04:21:49;;;;;;;;;;;15.70;79.20;;;;;;4192353;28;20297;-85
2023/08/06 04:23:49;;;;;;;;;;;15.70;79.20;;;;;;4174211;28;19931;-85
2023/08/06 04:25:51;;;;;;;;;;;15.70;79.10;;;;;;4170940;28;20414;-86
2023/08/06 04:27:54;;;;;;;;;;;15.70;79.10;;;;;;4173630;28;19920;-86
2023/08/06 04:30:04;;;;;;;;;;;15.70;79.10;;;;;;4159997;28;19943;-86
2023/08/06 04:32:26;;;;;;;;;;;15.70;78.90;;;;;;4193353;28;20289;-85
2023/08/06 04:34:47;;;;;;;;;;;15.80;78.60;;;;;;4198121;28;19905;-86
2023/08/06 04:37:08;;;;;;;;;;;15.70;78.10;;;;;;4191666;28;20321;-84
2023/08/06 04:39:29;;;;;;;;;;;15.70;78.00;;;;;;4178116;28;20616;-85
2023/08/06 04:41:49;;;;;;;;;;;15.70;77.50;;;;;;4181088;28;20344;-85
2023/08/06 04:44:10;;;;;;;;;;;15.70;77.30;;;;;;4175015;28;20263;-85
2023/08/06 04:46:31;;;;;;;;;;;15.70;77.30;;;;;;4194200;28;20312;-85
2023/08/06 04:48:51;;;;;;;;;;;15.80;77.10;;;;;;4175888;28;20091;-85
2023/08/06 04:51:12;;;;;;;;;;;15.90;76.90;;;;;;4179654;28;20017;-86
2023/08/06 04:53:13;;;;;;;;;;;15.80;76.70;;;;;;4194754;28;19912;-86
2023/08/06 04:55:19;;;;;;;;;;;15.80;76.70;;;;;;4192788;28;19916;-86
2023/08/06 04:57:20;;;;;;;;;;;15.80;76.40;;;;;;4175923;28;19919;-85
2023/08/06 04:59:21;;;;;;;;;;;15.90;76.30;;;;;;4171913;28;19913;-86
2023/08/06 05:01:24;;;;;;;;;;;15.90;75.90;;;;;;4174475;28;19909;-85
2023/08/06 05:03:27;;;;;;;;;;;15.90;75.70;;;;;;4191446;28;19982;-87
2023/08/06 05:05:47;;;;;;;;;;;15.90;75.70;;;;;;4193660;28;20277;-85
2023/08/06 05:08:14;;;;;;;;;;;15.90;75.40;;;;;;4192283;28;20266;-86
2023/08/06 05:10:37;;;;;;;;;;;16.00;75.10;;;;;;4193262;28;19916;-86
2023/08/06 05:12:58;;;;;;;;;;;16.00;74.70;;;;;;4179598;28;20359;-85
2023/08/06 05:15:21;;;;;;;;;;;15.90;74.70;;;;;;4192036;28;20381;-86
2023/08/06 05:17:42;;;;;;;;;;;16.00;74.00;;;;;;4193612;28;20269;-85
2023/08/06 05:19:42;;;;;;;;;;;16.00;74.20;;;;;;4174558;28;19916;-85
2023/08/06 05:21:43;;;;;;;;;;;16.00;73.80;;;;;;4170850;28;19920;-86
2023/08/06 05:23:44;;;;;;;;;;;16.00;73.90;;;;;;4175782;28;19977;-86
2023/08/06 05:25:44;;;;;;;;;;;16.00;73.90;;;;;;4175860;28;19917;-86
2023/08/06 05:27:45;;;;;;;;;;;16.00;74.00;;;;;;4175672;28;19913;-86
2023/08/06 05:29:49;;;;;;;;;;;16.00;74.40;;;;;;4189478;28;19958;-86
2023/08/06 05:31:49;;;;;;;;;;;16.10;74.90;;;;;;4192872;28;19950;-85
2023/08/06 05:33:50;;;;;;;;;;;16.00;75.30;;;;;;4171271;28;19912;-86
2023/08/06 05:36:11;;;;;;;;;;;16.10;75.10;;;;;;4177327;28;20282;-85
2023/08/06 05:38:31;;;;;;;;;;;16.10;75.90;;;;;;4173190;28;19909;-86
2023/08/06 05:40:56;;;;;;;;;;;16.10;76.10;;;;;;4191165;28;20305;-86
2023/08/06 05:43:16;;;;;;;;;;;16.20;76.30;;;;;;4190534;28;20322;-85
2023/08/06 05:45:37;;;;;;;;;;;16.10;76.70;;;;;;4178180;28;20357;-83
2023/08/06 05:47:37;;;;;;;;;;;16.10;76.60;;;;;;4177206;28;19908;-86
2023/08/06 05:49:38;;;;;;;;;;;16.20;77.00;;;;;;4160488;28;19909;-85
2023/08/06 05:51:39;;;;;;;;;;;16.20;77.10;;;;;;4177295;28;19924;-86
2023/08/06 05:53:41;;;;;;;;;;;16.10;77.20;;;;;;4175353;28;19909;-85
2023/08/06 05:56:10;;;;;;;;;;;16.30;77.20;;;;;;4193942;28;20332;-85
2023/08/06 05:58:31;;;;;;;;;;;16.10;77.10;;;;;;4173411;28;20378;-85
2023/08/06 06:00:32;;;;;;;;;;;16.10;77.00;;;;;;4193530;28;19916;-85
2023/08/06 06:02:58;;;;;;;;;;;16.10;76.90;;;;;;4173490;28;20335;-85
2023/08/06 06:05:19;;;;;;;;;;;16.20;77.00;;;;;;4192260;28;20717;-85
2023/08/06 06:07:30;;;;;;;;;;;16.10;77.00;;;;;;4160906;28;20437;-86
2023/08/06 06:09:50;;;;;;;;;;;16.20;77.10;;;;;;4190472;28;20294;-85
2023/08/06 06:12:17;;;;;;;;;;;16.20;77.10;;;;;;4189960;28;20366;-85
2023/08/06 06:14:38;;;;;;;;;;;16.20;77.10;;;;;;4175932;28;19908;-85
2023/08/06 06:16:59;;;;;;;;;;;16.20;77.10;;;;;;4178228;28;19947;-86
2023/08/06 06:18:59;;;;;;;;;;;16.20;76.90;;;;;;4194718;28;19957;-85
2023/08/06 06:21:00;;;;;;;;;;;16.10;76.80;;;;;;4177763;28;19915;-86
2023/08/06 06:23:01;;;;;;;;;;;16.10;76.60;;;;;;4174740;28;19909;-85
2023/08/06 06:25:01;;;;;;;;;;;16.10;76.60;;;;;;4170023;28;19943;-85
2023/08/06 06:27:03;;;;;;;;;;;16.10;76.60;;;;;;4191690;28;20393;-85
2023/08/06 06:29:04;;;;;;;;;;;16.10;76.60;;;;;;4194170;28;19916;-85
2023/08/06 06:31:13;;;;;;;;;;;16.10;76.60;;;;;;4172337;28;19909;-86
2023/08/06 06:33:14;;;;;;;;;;;16.10;76.50;;;;;;4177394;28;19920;-85
2023/08/06 06:35:44;;;;;;;;;;;16.20;76.50;;;;;;4174358;28;20321;-86
2023/08/06 06:38:05;;;;;;;;;;;16.20;76.00;;;;;;4175073;28;19925;-86
2023/08/06 06:40:26;;;;;;;;;;;16.10;75.60;;;;;;4189925;23;20315;-85
2023/08/06 06:42:46;;;;;;;;;;;16.20;75.80;;;;;;4194543;28;19942;-84
2023/08/06 06:44:47;;;;;;;;;;;16.10;75.70;;;;;;4188780;28;19917;-86
2023/08/06 06:47:15;;;;;;;;;;;16.20;75.70;;;;;;4209187;28;20263;-86
2023/08/06 06:49:39;;;;;;;;;;;16.20;75.80;;;;;;4207766;28;20457;-88
2023/08/06 06:52:11;;;;;;;;;;;16.10;75.70;;;;;;4191524;28;19915;-85
2023/08/06 06:54:32;;;;;;;;;;;16.20;75.60;;;;;;4219573;28;19911;-87
2023/08/06 06:56:52;;;;;;;;;;;16.20;75.40;;;;;;4208194;28;19913;-86
2023/08/06 06:59:13;;;;;;;;;;;16.30;75.30;;;;;;4224189;28;20473;-87
2023/08/06 07:01:13;;;;;;;;;;;16.20;75.10;;;;;;4223321;28;19927;-86
2023/08/06 07:03:16;;;;;;;;;;;16.30;75.20;;;;;;4208413;28;19913;-85
2023/08/06 07:05:17;;;;;;;;;;;16.30;74.90;;;;;;4174845;28;19957;-84
2023/08/06 07:07:18;;;;;;;;;;;16.30;75.00;;;;;;4202574;28;19939;-86
2023/08/06 07:09:38;;;;;;;;;;;16.30;74.80;;;;;;4193527;28;20301;-86
2023/08/06 07:11:59;;;;;;;;;;;16.40;74.10;;;;;;4193785;28;20325;-85
2023/08/06 07:14:19;;;;;;;;;;;16.30;74.10;;;;;;4204497;28;20450;-86
2023/08/06 07:16:43;;;;;;;;;;;16.30;73.60;;;;;;4191511;28;20247;-87
2023/08/06 07:19:06;;;;;;;;;;;16.30;73.60;;;;;;4203872;28;20279;-86
2023/08/06 07:21:27;;;;;;;;;;;16.30;73.30;;;;;;4192717;28;20278;-86
2023/08/06 07:23:49;;;;;;;;;;;16.40;73.40;;;;;;4203830;28;20341;-85
2023/08/06 07:25:50;;;;;;;;;;;16.40;73.30;;;;;;4173177;28;19916;-87
2023/08/06 07:27:50;;;;;;;;;;;16.40;73.20;;;;;;4187606;28;20010;-86
2023/08/06 07:30:01;;;;;;;;;;;16.40;72.70;;;;;;4184282;28;19924;-91
2023/08/06 07:32:33;;;;;;;;;;;16.30;72.50;;;;;;4201967;28;20274;-90
2023/08/06 07:44:32;;;;;;;;;;;;;;;;;;;;;
2023/08/06 07:51:56;;;;;;;;;;;16.50;71.50;;;;;;4192755;28;19974;-85
2023/08/06 07:54:16;;;;;;;;;;;16.50;70.60;;;;;;4193358;28;20512;-86
2023/08/06 07:56:17;;;;;;;;;;;16.50;70.30;;;;;;4188909;28;19965;-86
2023/08/06 07:58:18;;;;;;;;;;;16.50;70.60;;;;;;4190491;28;19919;-85
2023/08/06 08:00:19;;;;;;;;;;;16.50;70.70;;;;;;4172768;28;20275;-86
2023/08/06 08:02:40;;;;;;;;;;;16.50;70.80;;;;;;4185171;28;19909;-85
2023/08/06 08:05:00;;;;;;;;;;;16.60;71.00;;;;;;4189268;28;19963;-84
2023/08/06 08:07:21;;;;;;;;;;;16.60;70.80;;;;;;4193991;28;19912;-83
2023/08/06 08:09:41;;;;;;;;;;;16.60;70.20;;;;;;4189177;28;19940;-87
2023/08/06 08:11:47;;;;;;;;;;;16.50;69.50;;;;;;4178451;28;19959;-85
2023/08/06 08:14:08;;;;;;;;;;;16.60;69.50;;;;;;4187529;28;19945;-86
2023/08/06 08:16:28;;;;;;;;;;;16.50;69.40;;;;;;4187066;28;20354;-86
2023/08/06 08:18:49;;;;;;;;;;;16.60;70.00;;;;;;4189266;28;19919;-84
2023/08/06 08:21:09;;;;;;;;;;;16.60;70.20;;;;;;4186568;28;19961;-87
2023/08/06 08:23:31;;;;;;;;;;;16.70;69.90;;;;;;4188044;28;19987;-85
2023/08/06 08:25:51;;;;;;;;;;;16.70;69.70;;;;;;4189740;28;19917;-86
2023/08/06 08:28:12;;;;;;;;;;;16.70;70.20;;;;;;4187553;28;19917;-86
2023/08/06 08:30:13;;;;;;;;;;;16.80;70.70;;;;;;4185981;28;19920;-86
2023/08/06 08:32:13;;;;;;;;;;;16.80;69.90;;;;;;4187095;28;20023;-86
2023/08/06 08:34:14;;;;;;;;;;;16.90;70.20;;;;;;4187541;28;19927;-85
2023/08/06 08:36:15;;;;;;;;;;;17.00;70.50;;;;;;4174450;28;20413;-85
2023/08/06 08:38:16;;;;;;;;;;;17.00;70.60;;;;;;4188756;28;19919;-85
2023/08/06 08:40:17;;;;;;;;;;;17.10;70.10;;;;;;4171879;28;19944;-86
2023/08/06 08:42:18;;;;;;;;;;;17.10;69.30;;;;;;4191076;28;19916;-84
2023/08/06 08:44:39;;;;;;;;;;;17.10;69.40;;;;;;4190587;28;19958;-86
2023/08/06 08:47:00;;;;;;;;;;;17.20;68.30;;;;;;4175592;28;19909;-85
2023/08/06 08:49:21;;;;;;;;;;;17.30;68.70;;;;;;4188495;28;19919;-85
2023/08/06 08:51:43;;;;;;;;;;;17.30;68.10;;;;;;4172605;28;19917;-84
2023/08/06 08:54:04;;;;;;;;;;;17.40;68.30;;;;;;4190419;28;19952;-85
2023/08/06 08:56:24;;;;;;;;;;;17.30;67.50;;;;;;4187803;28;19920;-85
2023/08/06 08:58:45;;;;;;;;;;;17.40;67.30;;;;;;4173663;28;19913;-85
2023/08/06 09:01:07;;;;;;;;;;;17.40;67.70;;;;;;4187440;28;20430;-85
2023/08/06 09:03:27;;;;;;;;;;;17.40;68.20;;;;;;4186901;28;19920;-86
2023/08/06 09:05:49;;;;;;;;;;;17.50;68.00;;;;;;4188449;28;20029;-85
2023/08/06 09:08:05;;;;;;;;;;;17.50;68.30;;;;;;4188369;28;19920;-84
2023/08/06 09:10:06;;;;;;;;;;;17.50;67.50;;;;;;4168381;28;20359;-85
2023/08/06 09:12:12;;;;;;;;;;;17.50;67.70;;;;;;4171828;28;19913;-85
2023/08/06 09:14:13;;;;;;;;;;;17.50;67.70;;;;;;4191237;28;19916;-86
2023/08/06 09:16:22;;;;;;;;;;;17.60;67.80;;;;;;4171133;28;20389;-85
2023/08/06 09:18:43;;;;;;;;;;;17.70;68.00;;;;;;4200558;28;19917;-85
2023/08/06 09:21:04;;;;;;;;;;;17.70;68.00;;;;;;4190253;28;19917;-85
2023/08/06 09:23:29;;;;;;;;;;;17.80;67.90;;;;;;4191967;28;19923;-84
2023/08/06 09:25:50;;;;;;;;;;;17.80;67.50;;;;;;4191145;28;19920;-85
2023/08/06 09:28:10;;;;;;;;;;;17.80;66.60;;;;;;4186176;28;20375;-85
2023/08/06 09:30:32;;;;;;;;;;;17.90;67.10;;;;;;4189265;28;19916;-85
2023/08/06 09:32:52;;;;;;;;;;;18.00;67.00;;;;;;4192868;28;20400;-86
2023/08/06 09:34:56;;;;;;;;;;;17.90;66.40;;;;;;4189151;28;19909;-86
2023/08/06 09:36:57;;;;;;;;;;;17.90;66.70;;;;;;4185980;28;19940;-86
2023/08/06 09:38:58;;;;;;;;;;;17.90;66.60;;;;;;4156066;28;19917;-85
2023/08/06 09:41:03;;;;;;;;;;;18.00;66.70;;;;;;4169265;28;20430;-85
2023/08/06 09:43:23;;;;;;;;;;;18.00;66.70;;;;;;4185858;28;20051;-84
2023/08/06 09:45:44;;;;;;;;;;;18.00;66.50;;;;;;4185913;28;19921;-85
2023/08/06 09:48:08;;;;;;;;;;;18.00;65.10;;;;;;4184638;28;20390;-85
2023/08/06 09:50:32;;;;;;;;;;;18.00;65.50;;;;;;4183836;28;20370;-85
2023/08/06 09:52:43;;;;;;;;;;;18.10;65.40;;;;;;4171864;28;19913;-85
2023/08/06 09:55:04;;;;;;;;;;;18.10;65.00;;;;;;4176388;28;20628;-85
2023/08/06 09:57:25;;;;;;;;;;;18.10;64.90;;;;;;4185747;28;20462;-85
2023/08/06 09:59:47;;;;;;;;;;;18.20;64.50;;;;;;4187221;28;20318;-85
2023/08/06 10:02:11;;;;;;;;;;;18.20;63.30;;;;;;4185743;28;20413;-85
2023/08/06 10:04:28;;;;;;;;;;;18.30;63.80;;;;;;4186583;28;19970;-87
2023/08/06 10:06:49;;;;;;;;;;;18.30;64.10;;;;;;4186804;28;20414;-85
2023/08/06 10:09:10;;;;;;;;;;;18.20;63.70;;;;;;4182848;28;20409;-87
2023/08/06 10:11:31;;;;;;;;;;;18.30;63.20;;;;;;4187545;28;20415;-86
2023/08/06 10:13:55;;;;;;;;;;;18.40;62.90;;;;;;4186813;28;20373;-85
2023/08/06 10:16:16;;;;;;;;;;;18.40;62.40;;;;;;4187650;28;20427;-85
2023/08/06 10:18:38;;;;;;;;;;;18.40;62.70;;;;;;4186200;28;20015;-86
2023/08/06 10:20:59;;;;;;;;;;;18.40;62.30;;;;;;4182066;28;20402;-86
2023/08/06 10:23:01;;;;;;;;;;;18.40;62.40;;;;;;4184462;28;20420;-85
2023/08/06 10:25:05;;;;;;;;;;;18.40;62.50;;;;;;4187945;28;19921;-86
2023/08/06 10:27:06;;;;;;;;;;;18.40;62.30;;;;;;4187933;28;19915;-86
2023/08/06 10:29:25;;;;;;;;;;;18.40;62.60;;;;;;4188148;28;19917;-85
2023/08/06 10:31:44;;;;;;;;;;;18.40;62.70;;;;;;4167581;28;20394;-85
2023/08/06 10:33:47;;;;;;;;;;;18.40;62.50;;;;;;4184576;28;20412;-85
2023/08/06 10:36:07;;;;;;;;;;;18.40;62.60;;;;;;4188396;28;19966;-85
2023/08/06 10:38:18;;;;;;;;;;;18.50;63.10;;;;;;4186902;28;19920;-86
2023/08/06 10:40:47;;;;;;;;;;;18.50;63.50;;;;;;4189184;28;19997;-86
2023/08/06 10:43:24;;;;;;;;;;;18.50;63.20;;;;;;4173767;28;20429;-86
2023/08/06 10:45:49;;;;;;;;;;;18.50;62.20;;;;;;4172941;28;20334;-86
2023/08/06 10:48:10;;;;;;;;;;;18.50;62.10;;;;;;4186054;28;20552;-85
2023/08/06 10:50:31;;;;;;;;;;;18.50;62.50;;;;;;4188624;28;20282;-86
2023/08/06 10:52:52;;;;;;;;;;;18.50;62.50;;;;;;4186975;28;20369;-86
2023/08/06 10:55:13;;;;;;;;;;;18.50;62.70;;;;;;4186606;28;20274;-86
2023/08/06 10:57:34;;;;;;;;;;;18.50;62.70;;;;;;4176402;28;20529;-85
2023/08/06 10:59:55;;;;;;;;;;;18.50;63.00;;;;;;4186525;28;20409;-84
2023/08/06 11:02:15;;;;;;;;;;;18.60;63.60;;;;;;4189472;28;20411;-86
2023/08/06 11:04:36;;;;;;;;;;;18.50;62.70;;;;;;4186281;28;20321;-86
2023/08/06 11:06:57;;;;;;;;;;;18.60;63.40;;;;;;4173020;28;20378;-84
2023/08/06 11:08:57;;;;;;;;;;;18.60;62.60;;;;;;4174998;28;19959;-85
2023/08/06 11:11:07;;;;;;;;;;;18.60;62.70;;;;;;4158243;28;19946;-86
2023/08/06 11:13:29;;;;;;;;;;;18.60;62.20;;;;;;4189868;28;20293;-85
2023/08/06 11:15:52;;;;;;;;;;;18.70;62.90;;;;;;4177561;28;20421;-84
2023/08/06 11:18:12;;;;;;;;;;;18.60;62.50;;;;;;4178544;28;20378;-85
2023/08/06 11:20:33;;;;;;;;;;;18.70;62.10;;;;;;4186277;28;19909;-85
2023/08/06 11:22:53;;;;;;;;;;;18.70;62.20;;;;;;4190697;28;19916;-85
2023/08/06 11:25:14;;;;;;;;;;;18.70;62.30;;;;;;4175474;28;20313;-85
2023/08/06 11:27:15;;;;;;;;;;;18.70;62.00;;;;;;4192582;28;19950;-85
2023/08/06 11:29:16;;;;;;;;;;;18.80;62.00;;;;;;4178281;28;19913;-85
2023/08/06 11:31:20;;;;;;;;;;;18.90;62.50;;;;;;4190685;28;19999;-86
2023/08/06 11:33:41;;;;;;;;;;;18.80;62.20;;;;;;4189966;28;20332;-85
2023/08/06 11:36:01;;;;;;;;;;;18.90;62.60;;;;;;4188682;28;20015;-86
2023/08/06 11:38:24;;;;;;;;;;;19.00;62.80;;;;;;4188912;28;20293;-84
2023/08/06 11:40:45;;;;;;;;;;;19.10;63.30;;;;;;4176681;28;20318;-86
2023/08/06 11:43:06;;;;;;;;;;;19.10;61.20;;;;;;4192575;28;20293;-86
2023/08/06 11:45:26;;;;;;;;;;;19.10;60.90;;;;;;4188542;28;20306;-86
2023/08/06 11:47:49;;;;;;;;;;;19.20;60.80;;;;;;4189579;28;20301;-86
2023/08/06 11:50:21;;;;;;;;;;;19.20;60.80;;;;;;4192142;28;20342;-86
2023/08/06 11:52:42;;;;;;;;;;;19.30;61.10;;;;;;4189411;28;20282;-86
2023/08/06 11:54:43;;;;;;;;;;;19.30;61.60;;;;;;4173688;28;19955;-85
2023/08/06 11:56:45;;;;;;;;;;;19.30;61.10;;;;;;4189256;28;19912;-86
2023/08/06 11:59:06;;;;;;;;;;;19.40;60.80;;;;;;4190768;28;20373;-84
2023/08/06 12:01:27;;;;;;;;;;;19.40;59.90;;;;;;4188395;28;19959;-85
2023/08/06 12:03:48;;;;;;;;;;;19.40;59.80;;;;;;4178337;28;20313;-85
2023/08/06 12:06:08;;;;;;;;;;;19.50;60.50;;;;;;4187757;28;20195;-86
2023/08/06 12:08:29;;;;;;;;;;;19.50;60.80;;;;;;4173751;28;20369;-85
2023/08/06 12:10:50;;;;;;;;;;;19.50;60.20;;;;;;4189628;28;20453;-86
2023/08/06 12:13:12;;;;;;;;;;;19.50;58.90;;;;;;4189617;28;19948;-84
2023/08/06 12:15:33;;;;;;;;;;;19.50;58.40;;;;;;4202750;28;20281;-85
2023/08/06 12:17:34;;;;;;;;;;;19.50;58.80;;;;;;4182984;28;19916;-86
2023/08/06 12:19:54;;;;;;;;;;;19.60;59.20;;;;;;4179212;28;20356;-87
2023/08/06 12:22:15;;;;;;;;;;;19.60;59.40;;;;;;4187393;28;20275;-85
2023/08/06 12:24:35;;;;;;;;;;;19.60;59.20;;;;;;4190769;28;20278;-85
2023/08/06 12:26:57;;;;;;;;;;;19.70;58.80;;;;;;4189396;28;20271;-86
2023/08/06 12:29:02;;;;;;;;;;;19.70;58.60;;;;;;4189902;28;19916;-85
2023/08/06 12:31:23;;;;;;;;;;;19.70;57.60;;;;;;4187603;28;19917;-83
2023/08/06 12:33:29;;;;;;;;;;;19.70;57.80;;;;;;4186428;28;19909;-86
2023/08/06 12:35:32;;;;;;;;;;;19.70;56.90;;;;;;4185214;28;19909;-85
2023/08/06 12:40:02;;;;;;;;;;;19.70;57.00;;;;;;4219847;27;19951;-86
2023/08/06 12:42:24;;;;;;;;;;;19.80;57.30;;;;;;4224214;27;19923;-88
2023/08/06 12:44:44;;;;;;;;;;;19.80;56.40;;;;;;4226096;27;20296;-85
2023/08/06 12:47:05;;;;;;;;;;;19.80;56.80;;;;;;4228109;27;20006;-84
2023/08/06 12:49:33;;;;;;;;;;;19.80;56.30;;;;;;4218417;28;20395;-86
2023/08/06 12:51:48;;;;;;;;;;;19.80;56.60;;;;;;4202585;28;19950;-87
2023/08/06 12:53:49;;;;;;;;;;;19.90;57.00;;;;;;4197880;28;20390;-87
2023/08/06 12:55:49;;;;;;;;;;;19.90;56.90;;;;;;4184729;28;19913;-89
2023/08/06 12:57:50;;;;;;;;;;;19.90;57.50;;;;;;4199470;28;19921;-86
2023/08/06 12:59:50;;;;;;;;;;;20.00;57.60;;;;;;4211828;28;19915;-85
2023/08/06 13:01:51;;;;;;;;;;;20.00;57.60;;;;;;4213892;28;20391;-87
2023/08/06 13:04:12;;;;;;;;;;;20.10;57.40;;;;;;4216257;28;19916;-85
2023/08/06 13:06:36;;;;;;;;;;;20.10;57.70;;;;;;4220413;28;20361;-85
2023/08/06 13:09:03;;;;;;;;;;;20.20;57.50;;;;;;4216396;28;19912;-86
2023/08/06 13:11:23;;;;;;;;;;;20.30;55.90;;;;;;4200243;28;19908;-86
2023/08/06 13:13:44;;;;;;;;;;;20.30;56.30;;;;;;4216718;28;20032;-87
2023/08/06 13:16:05;;;;;;;;;;;20.30;56.00;;;;;;4214554;28;19951;-88
2023/08/06 13:18:27;;;;;;;;;;;20.30;55.10;;;;;;4199666;28;19916;-84
2023/08/06 13:20:49;;;;;;;;;;;20.30;54.60;;;;;;4220864;28;20016;-86
2023/08/06 13:23:10;;;;;;;;;;;20.30;54.50;;;;;;4214948;28;19935;-86
2023/08/06 13:25:36;;;;;;;;;;;20.40;54.90;;;;;;4218394;28;20005;-86
2023/08/06 13:27:57;;;;;;;;;;;20.30;54.70;;;;;;4200879;28;20033;-85
2023/08/06 13:29:58;;;;;;;;;;;20.40;55.00;;;;;;4193463;28;20011;-86